createdAt,value
2022-12-25T00:00:57.236Z,5.75
2022-12-25T00:03:24.243Z,5.73
2022-12-25T00:05:51.172Z,5.62
2022-12-25T00:08:18.121Z,5.63
2022-12-25T00:10:45.662Z,5.64
2022-12-25T00:13:12.714Z,5.63
2022-12-25T00:15:41.588Z,5.61
2022-12-25T00:18:08.614Z,5.60
2022-12-25T00:20:35.882Z,5.64
2022-12-25T00:23:02.816Z,5.64
2022-12-25T00:25:29.653Z,5.69
2022-12-25T00:27:56.430Z,5.68
2022-12-25T00:30:23.296Z,5.74
2022-12-25T00:32:50.360Z,5.76
2022-12-25T00:35:17.243Z,5.78
2022-12-25T00:37:44.106Z,5.68
2022-12-25T00:40:11.206Z,5.79
2022-12-25T00:42:38.074Z,5.79
2022-12-25T00:45:05.913Z,5.79
2022-12-25T00:47:33.322Z,5.77
2022-12-25T00:50:00.220Z,5.73
2022-12-25T00:52:27.174Z,5.63
2022-12-25T00:54:54.072Z,5.64
2022-12-25T00:57:20.968Z,5.53
2022-12-25T00:59:47.892Z,5.42
2022-12-25T01:02:23.913Z,5.49
2022-12-25T01:04:52.901Z,5.56
2022-12-25T01:07:20.511Z,5.52
2022-12-25T01:10:07.529Z,5.51
2022-12-25T01:12:37.442Z,5.51
2022-12-25T01:15:06.327Z,5.52
2022-12-25T01:17:33.697Z,5.54
2022-12-25T01:20:00.828Z,5.54
2022-12-25T01:22:27.794Z,5.48
2022-12-25T01:24:54.686Z,5.51
2022-12-25T01:27:21.604Z,5.53
2022-12-25T01:29:48.453Z,5.55
2022-12-25T01:32:15.296Z,5.54
2022-12-25T01:34:42.113Z,5.52
2022-12-25T01:37:09.016Z,5.52
2022-12-25T01:39:36.169Z,5.55
2022-12-25T01:42:03.237Z,5.62
2022-12-25T01:44:36.152Z,5.61
2022-12-25T01:47:03.931Z,5.59
2022-12-25T01:49:32.501Z,5.63
2022-12-25T01:52:04.404Z,5.63
2022-12-25T01:54:34.593Z,5.62
2022-12-25T01:57:03.605Z,5.66
2022-12-25T01:59:31.208Z,5.68
2022-12-25T02:02:00.131Z,5.63
2022-12-25T02:04:39.179Z,5.71
2022-12-25T02:07:08.948Z,5.63
2022-12-25T02:09:37.300Z,5.64
2022-12-25T02:12:05.477Z,5.60
2022-12-25T02:14:35.489Z,5.61
2022-12-25T02:17:09.802Z,5.51
2022-12-25T02:19:49.043Z,5.57
2022-12-25T02:22:34.585Z,5.60
2022-12-25T02:25:01.436Z,5.64
2022-12-25T02:27:33.898Z,5.63
2022-12-25T02:30:05.295Z,5.63
2022-12-25T02:32:51.068Z,5.64
2022-12-25T02:35:23.925Z,5.68
2022-12-25T02:37:56.332Z,5.61
2022-12-25T02:40:26.562Z,5.57
2022-12-25T02:43:14.540Z,5.50
2022-12-25T02:46:07.114Z,5.46
2022-12-25T02:48:57.679Z,5.46
2022-12-25T02:51:45.730Z,5.60
2022-12-25T02:54:33.999Z,5.56
2022-12-25T02:57:22.492Z,5.57
2022-12-25T03:00:09.799Z,5.62
2022-12-25T03:02:56.013Z,5.64
2022-12-25T03:05:43.423Z,5.51
2022-12-25T03:08:14.774Z,5.56
2022-12-25T03:11:05.354Z,5.51
2022-12-25T03:13:37.075Z,5.58
2022-12-25T03:16:22.776Z,5.51
2022-12-25T03:18:49.898Z,5.51
2022-12-25T03:21:35.566Z,5.51
2022-12-25T03:24:21.509Z,5.47
2022-12-25T03:26:58.010Z,5.45
2022-12-25T03:29:45.842Z,5.34
2022-12-25T03:32:18.734Z,5.33
2022-12-25T03:35:17.419Z,5.24
2022-12-25T03:38:20.640Z,5.23
2022-12-25T03:41:13.339Z,5.15
2022-12-25T03:44:12.994Z,5.08
2022-12-25T03:47:05.043Z,5.09
2022-12-25T03:49:59.458Z,5.09
2022-12-25T03:52:46.832Z,5.03
2022-12-25T03:55:33.672Z,4.92
2022-12-25T03:58:19.149Z,4.86
2022-12-25T04:01:04.783Z,4.81
2022-12-25T04:03:50.194Z,4.75
2022-12-25T04:06:35.662Z,4.50
2022-12-25T04:09:20.892Z,4.67
2022-12-25T04:12:06.467Z,4.57
2022-12-25T04:14:52.246Z,4.44
2022-12-25T04:17:37.427Z,4.50
2022-12-25T04:20:23.516Z,4.48
2022-12-25T04:23:08.954Z,4.44
2022-12-25T04:25:54.342Z,4.46
2022-12-25T04:28:39.700Z,4.44
2022-12-25T04:31:25.109Z,4.32
2022-12-25T04:34:10.961Z,4.26
2022-12-25T04:36:37.772Z,4.17
2022-12-25T04:39:04.611Z,4.06
2022-12-25T04:41:31.495Z,4.00
2022-12-25T04:43:58.309Z,3.98
2022-12-25T04:46:25.114Z,3.87
2022-12-25T04:48:52.073Z,3.88
2022-12-25T04:51:21.408Z,3.84
2022-12-25T04:53:49.224Z,3.75
2022-12-25T04:56:16.934Z,3.67
2022-12-25T04:58:44.327Z,3.62
2022-12-25T05:01:11.470Z,3.59
2022-12-25T05:03:38.710Z,3.57
2022-12-25T05:06:06.303Z,3.51
2022-12-25T05:08:34.715Z,3.55
2022-12-25T05:11:09.021Z,3.52
2022-12-25T05:13:36.211Z,3.44
2022-12-25T05:16:12.272Z,3.40
2022-12-25T05:18:39.463Z,3.32
2022-12-25T05:21:07.897Z,3.26
2022-12-25T05:23:34.966Z,3.31
2022-12-25T05:26:08.255Z,3.31
2022-12-25T05:28:35.650Z,3.31
2022-12-25T05:31:02.887Z,3.28
2022-12-25T05:33:29.912Z,3.24
2022-12-25T05:35:56.799Z,3.18
2022-12-25T05:38:23.664Z,3.00
2022-12-25T05:40:51.905Z,3.02
2022-12-25T05:43:19.652Z,3.01
2022-12-25T05:45:46.560Z,2.64
2022-12-25T05:48:13.595Z,2.73
2022-12-25T05:50:40.514Z,2.60
2022-12-25T05:53:12.397Z,2.69
2022-12-25T05:55:41.267Z,2.71
2022-12-25T05:58:08.839Z,2.69
2022-12-25T06:00:36.267Z,2.67
2022-12-25T06:03:03.841Z,2.59
2022-12-25T06:05:31.358Z,2.60
2022-12-25T06:07:58.834Z,2.54
2022-12-25T06:10:25.897Z,2.51
2022-12-25T06:12:52.873Z,2.49
2022-12-25T06:15:19.788Z,2.53
2022-12-25T06:17:46.966Z,2.54
2022-12-25T06:20:14.062Z,2.58
2022-12-25T06:22:40.932Z,2.58
2022-12-25T06:25:08.596Z,2.55
2022-12-25T06:27:35.499Z,2.58
2022-12-25T06:30:02.878Z,2.46
2022-12-25T06:32:30.245Z,2.50
2022-12-25T06:34:57.056Z,2.39
2022-12-25T06:37:23.859Z,2.34
2022-12-25T06:39:50.741Z,2.36
2022-12-25T06:42:17.582Z,2.26
2022-12-25T06:44:44.788Z,2.31
2022-12-25T06:47:11.708Z,2.33
2022-12-25T06:49:38.879Z,2.31
2022-12-25T06:52:05.666Z,2.23
2022-12-25T06:54:32.518Z,2.24
2022-12-25T06:56:59.407Z,2.20
2022-12-25T06:59:26.417Z,2.23
2022-12-25T07:01:55.435Z,2.24
2022-12-25T07:04:28.324Z,2.26
2022-12-25T07:06:55.126Z,2.28
2022-12-25T07:09:22.068Z,2.33
2022-12-25T07:11:48.973Z,2.42
2022-12-25T07:14:24.266Z,2.63
2022-12-25T07:16:51.891Z,2.77
2022-12-25T07:19:19.402Z,2.77
2022-12-25T07:21:47.265Z,2.72
2022-12-25T07:24:19.703Z,2.71
2022-12-25T07:26:46.543Z,2.63
2022-12-25T07:29:14.199Z,2.50
2022-12-25T07:31:41.548Z,2.79
2022-12-25T07:34:11.138Z,3.19
2022-12-25T07:36:38.006Z,3.30
2022-12-25T07:39:07.123Z,3.69
2022-12-25T07:41:34.071Z,3.70
2022-12-25T07:44:01.153Z,3.53
2022-12-25T07:46:28.405Z,3.66
2022-12-25T07:48:55.734Z,3.74
2022-12-25T07:51:22.600Z,3.72
2022-12-25T07:53:49.538Z,3.79
2022-12-25T07:56:18.273Z,3.81
2022-12-25T07:58:45.891Z,3.80
2022-12-25T08:01:14.687Z,3.75
2022-12-25T08:03:41.858Z,3.71
2022-12-25T08:06:10.549Z,3.85
2022-12-25T08:08:38.566Z,3.91
2022-12-25T08:11:07.680Z,3.99
2022-12-25T08:13:34.968Z,4.16
2022-12-25T08:16:04.696Z,4.22
2022-12-25T08:18:32.278Z,4.33
2022-12-25T08:21:06.784Z,4.45
2022-12-25T08:23:38.611Z,4.55
2022-12-25T08:26:08.868Z,4.68
2022-12-25T08:28:37.361Z,4.78
2022-12-25T08:31:15.632Z,4.88
2022-12-25T08:33:42.789Z,4.97
2022-12-25T08:36:10.842Z,5.04
2022-12-25T08:38:38.382Z,5.12
2022-12-25T08:41:05.615Z,5.21
2022-12-25T08:43:33.040Z,5.25
2022-12-25T08:46:01.908Z,5.31
2022-12-25T08:48:28.958Z,5.37
2022-12-25T08:50:55.990Z,5.44
2022-12-25T08:53:23.028Z,5.51
2022-12-25T08:55:57.235Z,5.57
2022-12-25T08:58:24.324Z,5.66
2022-12-25T09:00:51.299Z,5.70
2022-12-25T09:03:18.286Z,5.74
2022-12-25T09:05:45.184Z,5.81
2022-12-25T09:08:12.037Z,5.84
2022-12-25T09:10:38.994Z,5.88
2022-12-25T09:13:06.052Z,5.95
2022-12-25T09:15:32.949Z,5.98
2022-12-25T09:17:59.974Z,6.10
2022-12-25T09:20:26.912Z,6.18
2022-12-25T09:22:53.824Z,6.36
2022-12-25T09:25:20.865Z,6.49
2022-12-25T09:27:47.777Z,6.49
2022-12-25T09:30:14.816Z,6.60
2022-12-25T09:32:41.803Z,6.79
2022-12-25T09:35:09.189Z,6.97
2022-12-25T09:37:36.259Z,7.14
2022-12-25T09:40:04.337Z,7.24
2022-12-25T09:42:32.156Z,7.31
2022-12-25T09:45:39.574Z,7.55
2022-12-25T09:48:06.914Z,7.67
2022-12-25T09:50:44.797Z,7.79
2022-12-25T09:53:26.210Z,7.96
2022-12-25T09:56:04.660Z,8.28
2022-12-25T09:58:33.293Z,8.51
2022-12-25T10:01:22.477Z,8.79
2022-12-25T10:04:05.212Z,8.77
2022-12-25T10:06:47.501Z,8.90
2022-12-25T10:09:30.184Z,9.18
2022-12-25T10:12:27.473Z,9.29
2022-12-25T10:15:19.101Z,9.21
2022-12-25T10:17:52.434Z,9.20
2022-12-25T10:20:26.615Z,9.27
2022-12-25T10:22:57.841Z,9.43
2022-12-25T10:25:26.039Z,9.51
2022-12-25T10:27:57.443Z,9.62
2022-12-25T10:30:26.333Z,9.88
2022-12-25T10:32:53.596Z,9.98
2022-12-25T10:35:22.479Z,10.08
2022-12-25T10:37:56.400Z,10.13
2022-12-25T10:40:23.155Z,10.13
2022-12-25T10:42:54.960Z,10.36
2022-12-25T10:45:21.807Z,10.34
2022-12-25T10:47:54.387Z,10.31
2022-12-25T10:50:28.471Z,10.29
2022-12-25T10:53:05.967Z,10.31
2022-12-25T10:55:33.144Z,10.59
2022-12-25T10:58:02.034Z,10.60
2022-12-25T11:00:31.290Z,10.58
2022-12-25T11:02:58.862Z,10.63
2022-12-25T11:05:31.262Z,10.79
2022-12-25T11:08:00.337Z,10.79
2022-12-25T11:10:39.001Z,10.82
2022-12-25T11:13:07.658Z,10.76
2022-12-25T11:15:34.387Z,10.83
2022-12-25T11:18:01.491Z,10.78
2022-12-25T11:20:28.372Z,10.66
2022-12-25T11:22:55.229Z,10.77
2022-12-25T11:25:25.628Z,10.71
2022-12-25T11:28:00.877Z,10.71
2022-12-25T11:30:32.783Z,10.58
2022-12-25T11:33:03.685Z,10.62
2022-12-25T11:35:43.398Z,10.68
2022-12-25T11:38:10.215Z,10.69
2022-12-25T11:40:42.743Z,10.68
2022-12-25T11:43:12.918Z,10.72
2022-12-25T11:45:46.247Z,10.72
2022-12-25T11:48:17.175Z,10.75
2022-12-25T11:50:50.184Z,10.74
2022-12-25T11:53:20.630Z,10.77
2022-12-25T11:55:54.819Z,10.75
2022-12-25T11:58:37.473Z,10.81
2022-12-25T12:01:28.019Z,10.82
2022-12-25T12:03:55.276Z,10.81
2022-12-25T12:06:30.477Z,10.80
2022-12-25T12:09:21.247Z,10.84
2022-12-25T12:11:57.634Z,10.84
2022-12-25T12:14:43.220Z,10.85
2022-12-25T12:17:19.323Z,10.79
2022-12-25T12:19:46.233Z,10.77
2022-12-25T12:22:22.837Z,10.82
2022-12-25T12:25:01.442Z,10.84
2022-12-25T12:27:39.491Z,10.83
2022-12-25T12:30:22.176Z,10.90
2022-12-25T12:32:51.886Z,10.90
2022-12-25T12:35:26.393Z,10.90
2022-12-25T12:38:02.672Z,10.88
2022-12-25T12:40:36.497Z,10.86
2022-12-25T12:43:03.609Z,10.89
2022-12-25T12:45:33.146Z,10.89
2022-12-25T12:48:00.184Z,10.92
2022-12-25T12:50:29.237Z,10.92
2022-12-25T12:52:56.213Z,10.91
2022-12-25T12:55:31.641Z,10.95
2022-12-25T12:58:04.193Z,10.98
2022-12-25T13:00:49.577Z,11.05
2022-12-25T13:03:46.805Z,11.16
2022-12-25T13:06:32.644Z,11.28
2022-12-25T13:09:23.955Z,11.34
2022-12-25T13:11:51.104Z,11.39
2022-12-25T13:14:22.566Z,11.34
2022-12-25T13:16:52.349Z,11.28
2022-12-25T13:19:22.299Z,11.23
2022-12-25T13:21:56.562Z,11.17
2022-12-25T13:24:26.147Z,11.08
2022-12-25T13:26:53.359Z,10.98
2022-12-25T13:29:36.753Z,10.93
2022-12-25T13:32:06.535Z,10.85
2022-12-25T13:34:38.015Z,10.81
2022-12-25T13:37:25.764Z,10.78
2022-12-25T13:39:55.796Z,10.74
2022-12-25T13:42:26.365Z,10.71
2022-12-25T13:45:02.217Z,10.62
2022-12-25T13:47:31.826Z,10.59
2022-12-25T13:50:02.395Z,10.58
2022-12-25T13:52:38.228Z,10.59
2022-12-25T13:55:12.012Z,10.59
2022-12-25T13:57:45.621Z,10.56
2022-12-25T14:00:25.739Z,10.53
2022-12-25T14:02:53.749Z,10.46
2022-12-25T14:05:22.464Z,10.45
2022-12-25T14:07:53.731Z,10.43
2022-12-25T14:10:25.708Z,10.45
2022-12-25T14:12:54.374Z,10.44
2022-12-25T14:15:23.140Z,10.39
2022-12-25T14:17:51.036Z,10.44
2022-12-25T14:20:37.331Z,10.42
2022-12-25T14:23:05.171Z,10.34
2022-12-25T14:25:41.418Z,10.36
2022-12-25T14:28:18.009Z,10.35
2022-12-25T14:30:45.364Z,10.31
2022-12-25T14:33:22.741Z,10.32
2022-12-25T14:35:50.255Z,10.28
2022-12-25T14:38:29.294Z,10.22
2022-12-25T14:41:00.622Z,10.19
2022-12-25T14:43:28.707Z,10.15
2022-12-25T14:45:57.825Z,10.07
2022-12-25T14:48:30.276Z,10.05
2022-12-25T14:51:17.776Z,10.02
2022-12-25T14:53:53.672Z,9.97
2022-12-25T14:56:21.817Z,9.93
2022-12-25T14:58:55.378Z,9.89
2022-12-25T15:01:35.126Z,9.85
2022-12-25T15:04:12.207Z,9.86
2022-12-25T15:06:41.351Z,9.82
2022-12-25T15:09:16.569Z,9.78
2022-12-25T15:11:43.532Z,9.71
2022-12-25T15:14:10.390Z,9.69
2022-12-25T15:16:42.107Z,9.64
2022-12-25T15:19:34.809Z,9.61
2022-12-25T15:22:04.097Z,9.55
2022-12-25T15:24:31.780Z,9.49
2022-12-25T15:27:00.349Z,9.52
2022-12-25T15:30:07.411Z,9.55
2022-12-25T15:32:20.442Z,9.53
2022-12-25T15:34:49.741Z,9.49
2022-12-25T15:37:17.849Z,9.46
2022-12-25T15:39:45.787Z,9.43
2022-12-25T15:42:21.754Z,9.35
2022-12-25T15:44:48.571Z,9.38
2022-12-25T15:47:17.182Z,9.35
2022-12-25T15:49:44.141Z,9.32
2022-12-25T15:52:14.065Z,9.29
2022-12-25T15:54:41.128Z,9.30
2022-12-25T15:57:18.121Z,9.29
2022-12-25T15:59:45.359Z,9.32
2022-12-25T16:02:17.676Z,9.30
2022-12-25T16:04:44.873Z,9.31
2022-12-25T16:07:23.521Z,9.26
2022-12-25T16:09:50.741Z,9.27
2022-12-25T16:12:18.509Z,9.26
2022-12-25T16:14:45.310Z,9.24
2022-12-25T16:17:14.872Z,9.17
2022-12-25T16:19:44.608Z,9.18
2022-12-25T16:22:13.888Z,9.17
2022-12-25T16:24:40.764Z,9.15
2022-12-25T16:27:07.662Z,9.12
2022-12-25T16:29:34.627Z,9.10
2022-12-25T16:32:01.529Z,9.00
2022-12-25T16:34:28.636Z,8.96
2022-12-25T16:36:56.386Z,8.85
2022-12-25T16:39:23.372Z,8.84
2022-12-25T16:41:52.765Z,8.77
2022-12-25T16:44:19.679Z,8.70
2022-12-25T16:46:46.610Z,8.60
2022-12-25T16:49:13.933Z,8.52
2022-12-25T16:51:40.982Z,8.49
2022-12-25T16:54:08.715Z,8.48
2022-12-25T16:56:36.759Z,8.46
2022-12-25T16:59:03.864Z,8.45
2022-12-25T17:01:31.321Z,8.38
2022-12-25T17:04:01.545Z,8.34
2022-12-25T17:06:28.698Z,8.33
2022-12-25T17:08:57.840Z,8.31
2022-12-25T17:11:29.590Z,8.30
2022-12-25T17:13:57.381Z,8.23
2022-12-25T17:16:26.522Z,8.13
2022-12-25T17:18:58.546Z,8.18
2022-12-25T17:21:26.519Z,8.14
2022-12-25T17:23:59.684Z,8.09
2022-12-25T17:26:29.126Z,8.08
2022-12-25T17:28:56.407Z,8.08
2022-12-25T17:31:23.454Z,8.03
2022-12-25T17:33:50.296Z,8.07
2022-12-25T17:36:19.357Z,8.09
2022-12-25T17:38:47.601Z,8.11
2022-12-25T17:41:16.434Z,8.11
2022-12-25T17:43:45.635Z,8.09
2022-12-25T17:46:17.965Z,8.08
2022-12-25T17:48:45.570Z,8.05
2022-12-25T17:51:14.645Z,8.02
2022-12-25T17:53:43.483Z,8.03
2022-12-25T17:56:11.038Z,8.02
2022-12-25T17:58:38.592Z,8.00
2022-12-25T18:01:11.073Z,7.96
2022-12-25T18:03:38.380Z,7.93
2022-12-25T18:06:12.142Z,7.90
2022-12-25T18:08:40.168Z,7.90
2022-12-25T18:11:09.795Z,7.85
2022-12-25T18:13:37.456Z,7.81
2022-12-25T18:16:06.280Z,7.76
2022-12-25T18:18:33.836Z,7.76
2022-12-25T18:21:01.866Z,7.75
2022-12-25T18:23:28.817Z,7.72
2022-12-25T18:25:55.790Z,7.61
2022-12-25T18:28:22.691Z,7.57
2022-12-25T18:30:49.735Z,7.50
2022-12-25T18:33:17.166Z,7.43
2022-12-25T18:35:47.133Z,7.43
2022-12-25T18:38:14.601Z,7.40
2022-12-25T18:40:46.498Z,7.43
2022-12-25T18:43:14.459Z,7.45
2022-12-25T18:45:42.635Z,7.42
2022-12-25T18:48:10.682Z,7.41
2022-12-25T18:50:39.397Z,7.45
2022-12-25T18:53:07.100Z,7.45
2022-12-25T18:55:33.984Z,7.48
2022-12-25T18:58:02.377Z,7.47
2022-12-25T19:00:29.323Z,7.42
2022-12-25T19:02:58.620Z,7.43
2022-12-25T19:05:27.610Z,7.41
2022-12-25T19:07:58.559Z,7.41
2022-12-25T19:10:25.511Z,7.40
2022-12-25T19:12:52.868Z,7.37
2022-12-25T19:15:19.715Z,7.25
2022-12-25T19:17:46.675Z,7.30
2022-12-25T19:20:13.568Z,7.19
2022-12-25T19:22:40.492Z,7.24
2022-12-25T19:25:08.016Z,7.14
2022-12-25T19:27:35.210Z,7.12
2022-12-25T19:30:02.307Z,7.11
2022-12-25T19:32:30.998Z,7.02
2022-12-25T19:34:57.841Z,7.03
2022-12-25T19:37:24.781Z,7.08
2022-12-25T19:39:51.739Z,7.04
2022-12-25T19:42:18.996Z,7.09
2022-12-25T19:44:46.147Z,7.07
2022-12-25T19:47:13.016Z,7.09
2022-12-25T19:49:40.846Z,7.09
2022-12-25T19:52:07.836Z,7.09
2022-12-25T19:54:34.631Z,7.08
2022-12-25T19:57:01.579Z,7.06
2022-12-25T19:59:28.466Z,7.01
2022-12-25T20:01:55.615Z,7.05
2022-12-25T20:04:22.585Z,7.03
2022-12-25T20:06:49.511Z,7.04
2022-12-25T20:09:21.239Z,7.00
2022-12-25T20:11:48.631Z,6.99
2022-12-25T20:14:16.398Z,6.96
2022-12-25T20:16:44.278Z,6.95
2022-12-25T20:19:14.888Z,6.95
2022-12-25T20:21:41.976Z,6.94
2022-12-25T20:24:10.945Z,6.91
2022-12-25T20:26:38.679Z,6.96
2022-12-25T20:29:06.658Z,6.93
2022-12-25T20:31:35.033Z,6.96
2022-12-25T20:34:10.267Z,6.94
2022-12-25T20:36:38.246Z,6.98
2022-12-25T20:39:08.584Z,7.02
2022-12-25T20:41:35.926Z,7.02
2022-12-25T20:44:04.334Z,6.95
2022-12-25T20:46:31.393Z,7.01
2022-12-25T20:49:01.092Z,7.04
2022-12-25T20:51:28.053Z,7.04
2022-12-25T20:53:57.882Z,7.02
2022-12-25T20:56:26.170Z,7.04
2022-12-25T20:58:55.013Z,7.05
2022-12-25T21:01:22.282Z,7.05
2022-12-25T21:03:49.390Z,7.04
2022-12-25T21:06:16.321Z,7.03
2022-12-25T21:08:43.295Z,7.03
2022-12-25T21:11:11.169Z,7.03
2022-12-25T21:13:40.600Z,7.05
2022-12-25T21:16:14.092Z,7.07
2022-12-25T21:18:41.325Z,7.06
2022-12-25T21:21:08.779Z,7.03
2022-12-25T21:23:36.829Z,7.04
2022-12-25T21:26:31.854Z,7.06
2022-12-25T21:29:00.575Z,7.05
2022-12-25T21:31:28.372Z,7.07
2022-12-25T21:33:57.452Z,7.05
2022-12-25T21:36:30.056Z,7.03
2022-12-25T21:38:57.038Z,7.03
2022-12-25T21:41:24.501Z,7.08
2022-12-25T21:43:51.864Z,7.09
2022-12-25T21:46:19.556Z,7.08
2022-12-25T21:48:46.686Z,7.07
2022-12-25T21:51:39.835Z,7.05
2022-12-25T21:54:07.417Z,7.05
2022-12-25T21:56:43.024Z,7.04
2022-12-25T21:59:16.906Z,7.02
2022-12-25T22:01:43.932Z,7.04
2022-12-25T22:04:12.839Z,7.05
2022-12-25T22:06:58.593Z,7.02
2022-12-25T22:09:25.737Z,6.96
2022-12-25T22:12:11.458Z,6.93
2022-12-25T22:14:54.326Z,6.95
2022-12-25T22:17:45.817Z,6.94
2022-12-25T22:20:18.400Z,6.93
2022-12-25T22:22:45.347Z,6.89
2022-12-25T22:25:12.854Z,6.86
2022-12-25T22:27:40.886Z,6.81
2022-12-25T22:30:16.427Z,6.80
2022-12-25T22:32:43.328Z,6.78
2022-12-25T22:35:12.482Z,6.78
2022-12-25T22:37:40.744Z,6.76
2022-12-25T22:40:09.938Z,6.74
2022-12-25T22:42:36.881Z,6.75
2022-12-25T22:45:05.448Z,6.73
2022-12-25T22:47:32.704Z,6.75
2022-12-25T22:49:59.539Z,6.73
2022-12-25T22:52:26.546Z,6.73
2022-12-25T22:54:53.457Z,6.73
2022-12-25T22:57:20.296Z,6.75
2022-12-25T22:59:47.171Z,6.71
2022-12-25T23:02:14.257Z,6.72
2022-12-25T23:04:41.369Z,6.71
2022-12-25T23:07:08.795Z,6.71
2022-12-25T23:09:35.706Z,6.69
2022-12-25T23:12:02.576Z,6.67
2022-12-25T23:14:43.990Z,6.67
2022-12-25T23:17:32.024Z,6.68
2022-12-25T23:20:18.833Z,6.64
2022-12-25T23:23:04.749Z,6.62
2022-12-25T23:25:50.412Z,6.64
2022-12-25T23:28:40.062Z,6.60
2022-12-25T23:31:07.661Z,6.60
2022-12-25T23:33:34.544Z,6.57
2022-12-25T23:36:01.392Z,6.48
2022-12-25T23:38:28.185Z,6.56
2022-12-25T23:40:55.035Z,6.53
2022-12-25T23:43:22.139Z,6.50
2022-12-25T23:45:48.986Z,6.46
2022-12-25T23:48:15.912Z,6.48
2022-12-25T23:50:42.762Z,6.48
2022-12-25T23:53:10.914Z,6.47
2022-12-25T23:55:38.003Z,6.44
2022-12-25T23:58:05.186Z,6.41
